• Join FlightAware (Why Join?)
  • Login
  • US Flag 
02:58AM EDT


 

Airport Tracker/Info


-or-


 

Live Flight TrackerFlight Track Log ✈ N35BS ✈ 09-Aug-2014 ✈ KSPG - KFLL

Flight Track Log - Related Links

Times and Time Zones

All times are in EDT time to prevent confusion due to time zone crossing. See the N35BS flight status page for this flight to view local times or setup timezone preferences in your user account.

Time Position Orientation Groundspeed Altitude Reporting Facility
EDT Latitude Longitude Course Direction KTS MPH feet Rate Location/Type
11:25AM 27.7125 -82.5797 126° Southeast 161 185 5,500  Level Miami Center
11:26AM 27.6906 -82.5294 116° Southeast 177 204 6,200 960 Climbing Miami Center
11:27AM 27.6611 -82.4850 127° Southeast 147 169 7,500 600 Climbing Miami Center
11:28AM 27.6319 -82.4431 128° Southeast 169 194 7,500  Level Miami Center
11:29AM 27.5986 -82.3989 130° Southeast 182 209 7,500  Level Miami Center
11:30AM 27.6117 -82.3968 126° Southeast  Level Estimated
11:30AM 27.5647 -82.3561 132° Southeast 186 214 7,500  Level Miami Center
11:31AM 27.5364 -82.3075 123° Southeast 186 214 7,500  Level Miami Center
11:32AM 27.5031 -82.2481 122° Southeast 186 214 7,500  Level Miami Center
11:33AM 27.4725 -82.2025 127° Southeast 186 214 7,500  Level Miami Center
11:34AM 27.4425 -82.1569 127° Southeast 185 213 7,500  Level Miami Center
11:35AM 27.4119 -82.1114 127° Southeast 184 212 7,500  Level Miami Center
11:36AM 27.3822 -82.0664 127° Southeast 183 211 7,500  Level Miami Center
11:37AM 27.3444 -82.0125 128° Southeast 183 211 7,500  Level Miami Center
11:38AM 27.3281 -81.9586 109° East 193 222 7,500  Level Miami Center
11:39AM 27.3200 -81.9025 99° East 188 216 7,500  Level Miami Center
11:40AM 27.3092 -81.8456 102° East 188 216 7,500  Level Miami Center
11:41AM 27.2914 -81.7914 110° East 187 215 7,500 60 Level Miami Center
11:42AM 27.2719 -81.7267 109° East 186 214 7,700  Climbing Miami Center
11:43AM 27.2772 -81.6733 84° East 191 220 7,600  Descending Miami Center
11:44AM 27.2661 -81.6228 104° East 196 226 7,700 -60 Climbing Miami Center
11:45AM 27.2281 -81.5917 144° Southeast 188 216 7,500 -120 Descending Miami Center
11:46AM 27.2000 -81.5411 122° Southeast 194 223 7,500 -60 Level Miami Center
11:47AM 27.1506 -81.5047 147° Southeast 184 212 7,400 -60 Descending Miami Center
11:48AM 27.1094 -81.4764 148° Southeast 183 211 7,400  Level Miami Center
11:50AM 27.0786 -81.4297 127° Southeast 184 212 7,400  Level Miami Center
11:51AM 27.0594 -81.3758 112° Southeast 185 213 7,400  Level Miami Center
11:52AM 27.0261 -81.3197 124° Southeast 184 212 7,500  Climbing Miami Center
11:53AM 27.0039 -81.2689 116° Southeast 184 212 7,500 -60 Level Miami Center
11:54AM 26.9775 -81.2144 119° Southeast 187 215 7,400  Descending Miami Center
11:55AM 26.9589 -81.1622 112° Southeast 186 214 7,500  Climbing Miami Center
11:56AM 26.9286 -81.1106 123° Southeast 184 212 7,500  Level Miami Center
11:57AM 26.8956 -81.0619 127° Southeast 184 212 7,500  Level Miami Center
11:58AM 26.8589 -81.0206 135° Southeast 184 212 7,500  Level Miami Center
11:59AM 26.8150 -80.9881 147° Southeast 184 212 7,500  Level Miami Center
12:00PM 26.7747 -80.9492 139° Southeast 183 211 7,500  Level Miami Center
12:01PM 26.7375 -80.9056 134° Southeast 185 213 7,500  Level Miami Center
12:02PM 26.7006 -80.8625 134° Southeast 184 212 7,500  Level Miami Center
12:03PM 26.6653 -80.8236 135° Southeast 185 213 7,500  Level Miami Center
12:04PM 26.6256 -80.7825 137° Southeast 185 213 7,500  Level Miami Center
12:05PM 26.5858 -80.7411 137° Southeast 186 214 7,500  Level Miami Center
12:06PM 26.5564 -80.6875 122° Southeast 187 215 7,500  Level Miami Center
12:07PM 26.5233 -80.6428 130° Southeast 187 215 7,500  Level Miami Center
12:08PM 26.4828 -80.6206 154° Southeast 182 209 7,500 -120 Level Miami Center
12:08PM 26.4739 -80.6153 152° Southeast 182 209 7,400 -540 Descending Miami Center
12:09PM 26.4300 -80.5908 153° Southeast 194 223 6,900 -540 Descending Miami Center
12:10PM 26.3819 -80.5567 148° Southeast 197 227 6,400 -480 Descending Miami Center
12:10PM 26.3769 -80.5511 135° Southeast 198 228 6,400 -600 Level Miami Center
12:11PM 26.3328 -80.5147 144° Southeast 198 228 5,700 -720 Descending Miami Center
12:12PM 26.2928 -80.4775 140° Southeast 204 235 5,100 -780 Descending Miami Center
12:12PM 26.2869 -80.4686 126° Southeast 206 237 4,900 -900 Descending Miami Center
12:13PM 26.2517 -80.4347 139° Southeast 198 228 4,200 -780 Descending Miami Center
12:13PM 26.2464 -80.4275 129° Southeast 200 230 4,100 -840 Descending Miami Center
12:14PM 26.2111 -80.3828 131° Southeast 192 221 3,300 -540 Descending Miami Center
12:15PM 26.1781 -80.3408 131° Southeast 170 196 3,100 -120 Descending Miami Center
12:16PM 26.1750 -80.2894 94° East 163 188 3,100 -120 Level Miami Center
12:17PM 26.1772 -80.2850 61° Northeast 164 189 3,000  Descending Miami Center
12:17PM 26.1825 -80.2389 83° East 159 183 3,100  Climbing Miami Center
12:18PM 26.1831 -80.2361 77° East 163 188 3,000  Descending Miami Center
12:18PM 26.1700 -80.2008 112° Southeast 149 171 3,100  Climbing Miami Center
12:19PM 26.1664 -80.1928 117° Southeast 157 181 3,000  Descending Miami Center
12:19PM 26.1356 -80.1819 162° South 150 173 3,100  Climbing Miami Center
12:20PM 26.1347 -80.1839 244° Southwest 156 180 3,000 -600 Descending Miami Center
12:20PM 26.1244 -80.2300 256° West 163 188 2,500 -720 Descending Miami Center
12:21PM 26.1217 -80.2408 254° West 159 183 2,300 -420 Descending Miami Center
12:21PM 26.1050 -80.2725 240° Southwest 151 174 2,100 -420 Descending Miami Center
12:22PM 26.0964 -80.2772 206° Southwest 152 175 1,900 -780 Descending Miami Center
12:23PM 26.0775 -80.2492 127° Southeast 135 155 1,100 -660 Descending Miami Center
12:24PM 26.0772 -80.2125 90° East 126 145 700 -480 Descending Miami Center
12:24PM 26.0778 -80.2089 80° East 132 152 600 -300 Descending Miami Center
12:25PM 26.0772 -80.1800 91° East 83 96 400 -300 Descending Miami Center
12:25PM 26.0767 -80.1725 95° East 103 119 300 -420 Descending Miami Center
12:27PM 26.0667 -80.1500 127° Southeast  Level FlightAware Approximate